Cotes De La Manche — FQBE — position and weather

sailwx.info

Track history (hours):
 
Tides and Currents Weather Stations Pressure Air Temp Water Temp Dewpoint Dewpoint Depression Visibility Wind Speed Wind Dir Waves Ship Positions

Cotes De La Manche

Last reported at 2016-Feb-07 05:34 UTC. Time now 2016-Feb-07 06:01 UTC.
Position N 49°16' W 000°15'.

Length 25 m; draft 3.7 m.

Type: Other ship. MMSI: 227091000.

Date/timePositionNaut miles runAvg speedWind from/ knotsBaromVisibWave heightAir tempDewpointWater temp
2016-Feb-07 05:34N 49°16' W 000°15'0 0.0
2016-Feb-07 04:33N 49°16' W 000°15'0 0.0
2016-Feb-07 03:33N 49°16' W 000°15'0 0.0
2016-Feb-07 02:34N 49°16' W 000°15'0 0.0
2016-Feb-07 01:29N 49°16' W 000°15'0 0.0
2016-Feb-07 00:33N 49°16' W 000°15'0 0.0
2016-Feb-06 23:31N 49°16' W 000°15'0 0.0
2016-Feb-06 22:33N 49°16' W 000°15'0 0.0
2016-Feb-06 21:33N 49°16' W 000°15'0 0.0
2016-Feb-06 20:34N 49°16' W 000°15'0 0.0
2016-Feb-06 19:34N 49°16' W 000°15'0 0.0
2016-Feb-06 18:33N 49°16' W 000°15'0 0.0
2016-Feb-06 17:33N 49°16' W 000°15'1 0.8
2016-Feb-06 16:34N 49°17' W 000°15'4 3.7
2016-Feb-06 15:34N 49°19' W 000°10'0 0.1
2016-Feb-06 14:33N 49°19' W 000°10'0 0.2
2016-Feb-06 13:34N 49°19' W 000°10'6 5.7
2016-Feb-06 12:34N 49°22' W 000°02'3 3.3
2016-Feb-06 11:34N 49°25' E 000°00'2 2.3
2016-Feb-06 10:34N 49°24' E 000°04'2 1.6
2016-Feb-06 09:34N 49°25' E 000°06'1 0.8
2016-Feb-06 08:34N 49°24' E 000°06'6 6.0
2016-Feb-06 07:33N 49°21' W 000°02'9 9.3
2016-Feb-06 06:33N 49°17' W 000°15'0 0.0
2016-Feb-05 18:13N 49°17' W 000°15'4 5.0
2016-Feb-05 17:28N 49°18' W 000°10'7 8.1
2016-Feb-05 16:33N 49°22' W 000°00'2 1.8
2016-Feb-05 15:30N 49°23' E 000°02'2 2.3
2016-Feb-05 14:30N 49°21' W 000°00'3 3.1
2016-Feb-05 13:32N 49°21' W 000°05'3 3.0
2016-Feb-05 12:32N 49°21' W 000°09'2 2.3
2016-Feb-05 11:34N 49°20' W 000°07'2 2.1
2016-Feb-05 10:33N 49°20' W 000°04'5 4.8
2016-Feb-05 09:33N 49°18' W 000°11'2 1.5
2016-Feb-05 08:31N 49°20' W 000°12'2 1.9
2016-Feb-05 07:33N 49°19' W 000°14'3 2.4
2016-Feb-05 06:24N 49°16' W 000°15'0 0.0
2016-Feb-05 05:30N 49°16' W 000°15'0 0.0
2016-Feb-05 04:30N 49°16' W 000°15'0 0.0
2016-Feb-05 03:24N 49°16' W 000°15'0 0.0
2016-Feb-05 02:30N 49°16' W 000°15'0 0.0
2016-Feb-05 01:24N 49°16' W 000°15'0 0.0
2016-Feb-05 00:30N 49°16' W 000°15'0 0.0
2016-Feb-04 23:24N 49°16' W 000°15'0 0.0
2016-Feb-04 22:24N 49°16' W 000°15'0 0.0
2016-Feb-04 21:30N 49°16' W 000°15'0 0.0
2016-Feb-04 20:24N 49°16' W 000°15'0 0.0
2016-Feb-04 19:30N 49°16' W 000°15'0 0.0
2016-Feb-04 18:30N 49°16' W 000°15'1 0.5
2016-Feb-04 17:25N 49°17' W 000°15'6 7.2
2016-Feb-04 16:33N 49°23' W 000°12'10 9.6
2016-Feb-04 15:33N 49°28' E 000°00'5 4.7
2016-Feb-04 14:33N 49°29' E 000°07'0 0.3
2016-Feb-04 13:32N 49°29' E 000°07'0 0.0
2016-Feb-04 12:32N 49°29' E 000°07'0 0.0
2016-Feb-04 11:32N 49°29' E 000°07'0 0.0
2016-Feb-04 10:32N 49°29' E 000°07'0 0.0
2016-Feb-04 09:32N 49°29' E 000°07'0 0.0
2016-Feb-04 08:32N 49°29' E 000°07'0 0.0
2016-Feb-04 07:32N 49°29' E 000°07'0 0.0
2016-Feb-04 06:32N 49°29' E 000°07'0 0.0
2016-Feb-04 05:32N 49°29' E 000°07'0 0.1
2016-Feb-04 04:32N 49°29' E 000°07'0 0.1
2016-Feb-04 03:32N 49°29' E 000°07'0 0.0
2016-Feb-04 02:32N 49°29' E 000°07'0 0.0
2016-Feb-04 01:32N 49°29' E 000°07'0 0.0
2016-Feb-04 00:32N 49°29' E 000°07'0 0.0
2016-Feb-03 23:32N 49°29' E 000°07'0 0.0
2016-Feb-03 22:32N 49°29' E 000°07'0 0.0
2016-Feb-03 21:29N 49°29' E 000°07'0 0.0
2016-Feb-03 20:32N 49°29' E 000°07'0 0.0
2016-Feb-03 19:32N 49°29' E 000°07'0 0.0
2016-Feb-03 18:32N 49°29' E 000°07'0 0.0
2016-Feb-03 17:32N 49°29' E 000°07'0 0.0
2016-Feb-03 16:32N 49°29' E 000°07'0 0.0
2016-Feb-03 15:32N 49°29' E 000°07'0 0.0
2016-Feb-03 14:32N 49°29' E 000°07'0 0.0
2016-Feb-03 13:32N 49°29' E 000°07'0 0.0
2016-Feb-03 12:32N 49°29' E 000°07'0 0.0
2016-Feb-03 11:32N 49°29' E 000°07'0 0.0
2016-Feb-03 10:32N 49°29' E 000°07'0 0.0
2016-Feb-03 09:32N 49°29' E 000°07'0 0.0
2016-Feb-03 08:32N 49°29' E 000°07'0 0.0
2016-Feb-03 07:32N 49°29' E 000°07'0 0.0
2016-Feb-03 06:32N 49°29' E 000°07'0 0.0
2016-Feb-03 05:32N 49°29' E 000°07'0 0.0
2016-Feb-03 04:32N 49°29' E 000°07'0 0.0
2016-Feb-03 03:32N 49°29' E 000°07'0 0.0
2016-Feb-03 02:32N 49°29' E 000°07'0 0.0
2016-Feb-03 01:32N 49°29' E 000°07'0 0.0
2016-Feb-03 00:32N 49°29' E 000°07'0 0.0
2016-Feb-02 23:32N 49°29' E 000°07'0 0.0
2016-Feb-02 22:32N 49°29' E 000°07'0 0.0
2016-Feb-02 21:32N 49°29' E 000°07'0 0.0
2016-Feb-02 20:32N 49°29' E 000°07'0 0.0
2016-Feb-02 19:32N 49°29' E 000°07'0 0.0
2016-Feb-02 18:29N 49°29' E 000°07'0 0.0
2016-Feb-02 17:32N 49°29' E 000°07'0 0.0
2016-Feb-02 16:32N 49°29' E 000°07'3 3.6
2016-Feb-02 15:33N 49°29' E 000°02'0 0.1
2016-Feb-02 14:33N 49°29' E 000°02'0 0.1
2016-Feb-02 13:33N 49°29' E 000°02'0 0.0
2016-Feb-02 12:33N 49°29' E 000°02'0 0.0
2016-Feb-02 11:33N 49°29' E 000°02'0 0.1
2016-Feb-02 10:33N 49°29' E 000°02'0 0.1
2016-Feb-02 09:33N 49°29' E 000°02'0 0.0
2016-Feb-02 08:33N 49°29' E 000°02'0 0.0
2016-Feb-02 07:33N 49°29' E 000°02'0 0.0
2016-Feb-02 06:33N 49°29' E 000°02'7 7.5
2016-Feb-02 05:34N 49°26' E 000°12'5 4.9
2016-Feb-02 04:34N 49°26' E 000°20'0 0.0
2016-Feb-02 03:34N 49°26' E 000°20'0 0.0
2016-Feb-02 02:34N 49°26' E 000°20'0 0.0
2016-Feb-02 01:34N 49°26' E 000°20'0 0.0
2016-Feb-02 00:34N 49°26' E 000°20'0 0.0
2016-Feb-01 23:34N 49°26' E 000°20'0 0.0
2016-Feb-01 22:33N 49°26' E 000°20'0 0.0
2016-Feb-01 21:34N 49°26' E 000°20'0 0.0
2016-Feb-01 20:30N 49°26' E 000°20'0 0.0
2016-Feb-01 19:33N 49°26' E 000°20'0 0.0
2016-Feb-01 18:34N 49°26' E 000°20'0 0.0
2016-Feb-01 17:34N 49°26' E 000°20'0 0.0
2016-Feb-01 16:33N 49°26' E 000°20'0 0.0
2016-Feb-01 15:33N 49°26' E 000°20'0 0.0
2016-Feb-01 14:33N 49°26' E 000°20'0 0.0
2016-Feb-01 13:34N 49°26' E 000°20'0 0.0
2016-Feb-01 12:34N 49°26' E 000°20'0 0.1
2016-Feb-01 11:34N 49°26' E 000°20'0 0.1
2016-Feb-01 10:33N 49°26' E 000°20'0 0.0
2016-Feb-01 09:34N 49°26' E 000°19'0 0.2
2016-Feb-01 08:33N 49°26' E 000°19'0 0.0
2016-Feb-01 07:33N 49°26' E 000°19'0 0.1
2016-Feb-01 06:34N 49°26' E 000°19'0 0.1
2016-Feb-01 05:34N 49°26' E 000°19'0 0.0
2016-Feb-01 04:34N 49°26' E 000°19'0 0.0
2016-Feb-01 03:34N 49°26' E 000°19'0 0.0
2016-Feb-01 02:34N 49°26' E 000°19'0 0.0
2016-Feb-01 01:34N 49°26' E 000°19'0 0.0
2016-Feb-01 00:34N 49°26' E 000°19'0 0.0
2016-Jan-31 23:34N 49°26' E 000°19'0 0.1
2016-Jan-31 22:34N 49°26' E 000°19'0 0.1
2016-Jan-31 21:33N 49°26' E 000°19'0 0.1
2016-Jan-31 20:34N 49°26' E 000°19'0 0.0
2016-Jan-31 19:33N 49°26' E 000°19'0 0.1
2016-Jan-31 18:34N 49°26' E 000°19'0 0.0
2016-Jan-31 17:34N 49°26' E 000°19'0 0.1
2016-Jan-31 16:34N 49°26' E 000°19'0 0.0
2016-Jan-31 15:33N 49°26' E 000°19'0 0.0
2016-Jan-31 14:34N 49°26' E 000°19'0 0.0
2016-Jan-31 13:34N 49°26' E 000°19'0 0.0
2016-Jan-31 12:34N 49°26' E 000°19'0 0.0
2016-Jan-31 11:34N 49°26' E 000°19'0 0.0
2016-Jan-31 10:34N 49°26' E 000°19'0 0.0
2016-Jan-31 09:34N 49°26' E 000°19'0 0.0
2016-Jan-31 08:34N 49°26' E 000°19'0 0.0
2016-Jan-31 07:34N 49°26' E 000°19'0 0.0
2016-Jan-31 06:34N 49°26' E 000°19'0 0.0
2016-Jan-31 05:34N 49°26' E 000°19'0 0.0
2016-Jan-31 04:33N 49°26' E 000°19'0 0.0
2016-Jan-31 03:34N 49°26' E 000°19'0 0.0
2016-Jan-31 02:34N 49°26' E 000°19'0 0.0
2016-Jan-31 01:33N 49°26' E 000°19'0 0.0
2016-Jan-31 00:33N 49°26' E 000°19'0 0.0
2016-Jan-30 23:33N 49°26' E 000°19'0 0.1
2016-Jan-30 22:34N 49°26' E 000°19'0 0.0
2016-Jan-30 21:33N 49°26' E 000°19'0 0.0
2016-Jan-30 20:34N 49°26' E 000°19'0 0.0
2016-Jan-30 19:34N 49°26' E 000°19'0 0.0
2016-Jan-30 18:34N 49°26' E 000°19'0 0.0
2016-Jan-30 17:33N 49°26' E 000°19'0 0.0
2016-Jan-30 16:33N 49°26' E 000°19'0 0.0
2016-Jan-30 15:34N 49°26' E 000°19'7 7.1
2016-Jan-30 14:34N 49°26' E 000°08'4 4.0
2016-Jan-30 13:34N 49°29' E 000°05'2 1.5
2016-Jan-30 12:34N 49°29' E 000°07'0 0.0
2016-Jan-30 11:34N 49°29' E 000°07'0 0.0
2016-Jan-30 10:34N 49°29' E 000°07'0 0.0
2016-Jan-30 09:33N 49°29' E 000°07'0 0.0
2016-Jan-30 08:34N 49°29' E 000°07'0 0.0
2016-Jan-30 07:34N 49°29' E 000°07'0 0.0
2016-Jan-30 06:34N 49°29' E 000°07'0 0.0
2016-Jan-30 05:34N 49°29' E 000°07'0 0.0
2016-Jan-30 04:34N 49°29' E 000°07'0 0.0
2016-Jan-30 03:34N 49°29' E 000°07'0 0.0
2016-Jan-30 02:34N 49°29' E 000°07'0 0.0
2016-Jan-30 01:34N 49°29' E 000°07'0 0.0
2016-Jan-30 00:34N 49°29' E 000°07'0 0.0
2016-Jan-29 23:34N 49°29' E 000°07'0 0.0
2016-Jan-29 22:33N 49°29' E 000°07'0 0.5
2016-Jan-29 21:34N 49°29' E 000°07'6 5.6
2016-Jan-29 20:34N 49°28' W 000°01'1010.2
2016-Jan-29 19:34N 49°22' W 000°15'3 3.3
2016-Jan-29 18:34N 49°20' W 000°19'0 0.0
2016-Jan-29 17:34N 49°20' W 000°19'0 0.0
2016-Jan-29 16:33N 49°20' W 000°19'0 0.0
2016-Jan-29 15:32N 49°20' W 000°19'0 0.1
2016-Jan-29 14:34N 49°20' W 000°19'0 0.0
2016-Jan-29 13:33N 49°20' W 000°19'0 0.0
2016-Jan-29 12:34N 49°20' W 000°19'0 0.0
2016-Jan-29 11:33N 49°20' W 000°19'0 0.0
2016-Jan-29 10:34N 49°20' W 000°19'0 0.0
2016-Jan-29 08:22N 49°20' W 000°19'0 0.0
2016-Jan-29 07:34N 49°20' W 000°19'0 0.0
2016-Jan-29 06:33N 49°20' W 000°19'0 0.0
2016-Jan-29 05:34N 49°20' W 000°19'0 0.0
2016-Jan-29 04:34N 49°20' W 000°19'0 0.0
2016-Jan-29 03:34N 49°20' W 000°19'0 0.0
2016-Jan-29 02:34N 49°20' W 000°19'0 0.0
2016-Jan-29 01:34N 49°20' W 000°19'0 0.0
2016-Jan-29 00:33N 49°20' W 000°19'0 0.0
2016-Jan-28 23:33N 49°20' W 000°19'0 0.0
2016-Jan-28 22:34N 49°20' W 000°19'0 0.0
2016-Jan-28 21:33N 49°20' W 000°19'0 0.0
2016-Jan-28 20:34N 49°20' W 000°19'9 8.9
2016-Jan-28 19:34N 49°25' W 000°07'7 7.0
2016-Jan-28 18:34N 49°29' E 000°02'0 0.0
2016-Jan-28 17:34N 49°29' E 000°02'0 0.0
2016-Jan-28 16:34N 49°29' E 000°02'0 0.0
2016-Jan-28 15:34N 49°29' E 000°02'0 0.0
2016-Jan-28 14:34N 49°29' E 000°02'0 0.0
2016-Jan-28 13:34N 49°29' E 000°02'0 0.0
2016-Jan-28 12:34N 49°29' E 000°02'0 0.0
2016-Jan-28 11:34N 49°29' E 000°02'0 0.0
2016-Jan-28 10:34N 49°29' E 000°02'0 0.0
2016-Jan-28 09:34N 49°29' E 000°02'0 0.0
2016-Jan-28 08:34N 49°29' E 000°02'0 0.0
2016-Jan-28 07:34N 49°29' E 000°02'1 1.2
2016-Jan-28 06:34N 49°28' E 000°00'9 9.1
2016-Jan-28 05:34N 49°23' W 000°12'  
Track history (hours):
 
Tides and Currents Weather Stations Pressure Air Temp Water Temp Dewpoint Dewpoint Depression Visibility Wind Speed Wind Dir Waves Ship Positions

Cotes De La Manche

Last reported at 2016-Feb-07 05:34 UTC. Time now 2016-Feb-07 06:01 UTC.
Position N 49°16' W 000°15'.

Length 25 m; draft 3.7 m.

Type: Other ship. MMSI: 227091000.

Date/timePositionNaut miles runAvg speedWind from/ knotsBaromVisibWave heightAir tempDewpointWater temp
2016-Feb-07 05:34N 49°16' W 000°15'0 0.0
2016-Feb-07 04:33N 49°16' W 000°15'0 0.0
2016-Feb-07 03:33N 49°16' W 000°15'0 0.0
2016-Feb-07 02:34N 49°16' W 000°15'0 0.0
2016-Feb-07 01:29N 49°16' W 000°15'0 0.0
2016-Feb-07 00:33N 49°16' W 000°15'0 0.0
2016-Feb-06 23:31N 49°16' W 000°15'0 0.0
2016-Feb-06 22:33N 49°16' W 000°15'0 0.0
2016-Feb-06 21:33N 49°16' W 000°15'0 0.0
2016-Feb-06 20:34N 49°16' W 000°15'0 0.0
2016-Feb-06 19:34N 49°16' W 000°15'0 0.0
2016-Feb-06 18:33N 49°16' W 000°15'0 0.0
2016-Feb-06 17:33N 49°16' W 000°15'1 0.8
2016-Feb-06 16:34N 49°17' W 000°15'4 3.7
2016-Feb-06 15:34N 49°19' W 000°10'0 0.1
2016-Feb-06 14:33N 49°19' W 000°10'0 0.2
2016-Feb-06 13:34N 49°19' W 000°10'6 5.7
2016-Feb-06 12:34N 49°22' W 000°02'3 3.3
2016-Feb-06 11:34N 49°25' E 000°00'2 2.3
2016-Feb-06 10:34N 49°24' E 000°04'2 1.6
2016-Feb-06 09:34N 49°25' E 000°06'1 0.8
2016-Feb-06 08:34N 49°24' E 000°06'6 6.0
2016-Feb-06 07:33N 49°21' W 000°02'9 9.3
2016-Feb-06 06:33N 49°17' W 000°15'0 0.0
2016-Feb-05 18:13N 49°17' W 000°15'4 5.0
2016-Feb-05 17:28N 49°18' W 000°10'7 8.1
2016-Feb-05 16:33N 49°22' W 000°00'2 1.8
2016-Feb-05 15:30N 49°23' E 000°02'2 2.3
2016-Feb-05 14:30N 49°21' W 000°00'3 3.1
2016-Feb-05 13:32N 49°21' W 000°05'3 3.0
2016-Feb-05 12:32N 49°21' W 000°09'2 2.3
2016-Feb-05 11:34N 49°20' W 000°07'2 2.1
2016-Feb-05 10:33N 49°20' W 000°04'5 4.8
2016-Feb-05 09:33N 49°18' W 000°11'2 1.5
2016-Feb-05 08:31N 49°20' W 000°12'2 1.9
2016-Feb-05 07:33N 49°19' W 000°14'3 2.4
2016-Feb-05 06:24N 49°16' W 000°15'0 0.0
2016-Feb-05 05:30N 49°16' W 000°15'0 0.0
2016-Feb-05 04:30N 49°16' W 000°15'0 0.0
2016-Feb-05 03:24N 49°16' W 000°15'0 0.0
2016-Feb-05 02:30N 49°16' W 000°15'0 0.0
2016-Feb-05 01:24N 49°16' W 000°15'0 0.0
2016-Feb-05 00:30N 49°16' W 000°15'0 0.0
2016-Feb-04 23:24N 49°16' W 000°15'0 0.0
2016-Feb-04 22:24N 49°16' W 000°15'0 0.0
2016-Feb-04 21:30N 49°16' W 000°15'0 0.0
2016-Feb-04 20:24N 49°16' W 000°15'0 0.0
2016-Feb-04 19:30N 49°16' W 000°15'0 0.0
2016-Feb-04 18:30N 49°16' W 000°15'1 0.5
2016-Feb-04 17:25N 49°17' W 000°15'6 7.2
2016-Feb-04 16:33N 49°23' W 000°12'10 9.6
2016-Feb-04 15:33N 49°28' E 000°00'5 4.7
2016-Feb-04 14:33N 49°29' E 000°07'0 0.3
2016-Feb-04 13:32N 49°29' E 000°07'0 0.0
2016-Feb-04 12:32N 49°29' E 000°07'0 0.0
2016-Feb-04 11:32N 49°29' E 000°07'0 0.0
2016-Feb-04 10:32N 49°29' E 000°07'0 0.0
2016-Feb-04 09:32N 49°29' E 000°07'0 0.0
2016-Feb-04 08:32N 49°29' E 000°07'0 0.0
2016-Feb-04 07:32N 49°29' E 000°07'0 0.0
2016-Feb-04 06:32N 49°29' E 000°07'0 0.0
2016-Feb-04 05:32N 49°29' E 000°07'0 0.1
2016-Feb-04 04:32N 49°29' E 000°07'0 0.1
2016-Feb-04 03:32N 49°29' E 000°07'0 0.0
2016-Feb-04 02:32N 49°29' E 000°07'0 0.0
2016-Feb-04 01:32N 49°29' E 000°07'0 0.0
2016-Feb-04 00:32N 49°29' E 000°07'0 0.0
2016-Feb-03 23:32N 49°29' E 000°07'0 0.0
2016-Feb-03 22:32N 49°29' E 000°07'0 0.0
2016-Feb-03 21:29N 49°29' E 000°07'0 0.0
2016-Feb-03 20:32N 49°29' E 000°07'0 0.0
2016-Feb-03 19:32N 49°29' E 000°07'0 0.0
2016-Feb-03 18:32N 49°29' E 000°07'0 0.0
2016-Feb-03 17:32N 49°29' E 000°07'0 0.0
2016-Feb-03 16:32N 49°29' E 000°07'0 0.0
2016-Feb-03 15:32N 49°29' E 000°07'0 0.0
2016-Feb-03 14:32N 49°29' E 000°07'0 0.0
2016-Feb-03 13:32N 49°29' E 000°07'0 0.0
2016-Feb-03 12:32N 49°29' E 000°07'0 0.0
2016-Feb-03 11:32N 49°29' E 000°07'0 0.0
2016-Feb-03 10:32N 49°29' E 000°07'0 0.0
2016-Feb-03 09:32N 49°29' E 000°07'0 0.0
2016-Feb-03 08:32N 49°29' E 000°07'0 0.0
2016-Feb-03 07:32N 49°29' E 000°07'0 0.0
2016-Feb-03 06:32N 49°29' E 000°07'0 0.0
2016-Feb-03 05:32N 49°29' E 000°07'0 0.0
2016-Feb-03 04:32N 49°29' E 000°07'0 0.0
2016-Feb-03 03:32N 49°29' E 000°07'0 0.0
2016-Feb-03 02:32N 49°29' E 000°07'0 0.0
2016-Feb-03 01:32N 49°29' E 000°07'0 0.0
2016-Feb-03 00:32N 49°29' E 000°07'0 0.0
2016-Feb-02 23:32N 49°29' E 000°07'0 0.0
2016-Feb-02 22:32N 49°29' E 000°07'0 0.0
2016-Feb-02 21:32N 49°29' E 000°07'0 0.0
2016-Feb-02 20:32N 49°29' E 000°07'0 0.0
2016-Feb-02 19:32N 49°29' E 000°07'0 0.0
2016-Feb-02 18:29N 49°29' E 000°07'0 0.0
2016-Feb-02 17:32N 49°29' E 000°07'0 0.0
2016-Feb-02 16:32N 49°29' E 000°07'3 3.6
2016-Feb-02 15:33N 49°29' E 000°02'0 0.1
2016-Feb-02 14:33N 49°29' E 000°02'0 0.1
2016-Feb-02 13:33N 49°29' E 000°02'0 0.0
2016-Feb-02 12:33N 49°29' E 000°02'0 0.0
2016-Feb-02 11:33N 49°29' E 000°02'0 0.1
2016-Feb-02 10:33N 49°29' E 000°02'0 0.1
2016-Feb-02 09:33N 49°29' E 000°02'0 0.0
2016-Feb-02 08:33N 49°29' E 000°02'0 0.0
2016-Feb-02 07:33N 49°29' E 000°02'0 0.0
2016-Feb-02 06:33N 49°29' E 000°02'7 7.5
2016-Feb-02 05:34N 49°26' E 000°12'5 4.9
2016-Feb-02 04:34N 49°26' E 000°20'0 0.0
2016-Feb-02 03:34N 49°26' E 000°20'0 0.0
2016-Feb-02 02:34N 49°26' E 000°20'0 0.0
2016-Feb-02 01:34N 49°26' E 000°20'0 0.0
2016-Feb-02 00:34N 49°26' E 000°20'0 0.0
2016-Feb-01 23:34N 49°26' E 000°20'0 0.0
2016-Feb-01 22:33N 49°26' E 000°20'0 0.0
2016-Feb-01 21:34N 49°26' E 000°20'0 0.0
2016-Feb-01 20:30N 49°26' E 000°20'0 0.0
2016-Feb-01 19:33N 49°26' E 000°20'0 0.0
2016-Feb-01 18:34N 49°26' E 000°20'0 0.0
2016-Feb-01 17:34N 49°26' E 000°20'0 0.0
2016-Feb-01 16:33N 49°26' E 000°20'0 0.0
2016-Feb-01 15:33N 49°26' E 000°20'0 0.0
2016-Feb-01 14:33N 49°26' E 000°20'0 0.0
2016-Feb-01 13:34N 49°26' E 000°20'0 0.0
2016-Feb-01 12:34N 49°26' E 000°20'0 0.1
2016-Feb-01 11:34N 49°26' E 000°20'0 0.1
2016-Feb-01 10:33N 49°26' E 000°20'0 0.0
2016-Feb-01 09:34N 49°26' E 000°19'0 0.2
2016-Feb-01 08:33N 49°26' E 000°19'0 0.0
2016-Feb-01 07:33N 49°26' E 000°19'0 0.1
2016-Feb-01 06:34N 49°26' E 000°19'0 0.1
2016-Feb-01 05:34N 49°26' E 000°19'0 0.0
2016-Feb-01 04:34N 49°26' E 000°19'0 0.0
2016-Feb-01 03:34N 49°26' E 000°19'0 0.0
2016-Feb-01 02:34N 49°26' E 000°19'0 0.0
2016-Feb-01 01:34N 49°26' E 000°19'0 0.0
2016-Feb-01 00:34N 49°26' E 000°19'0 0.0
2016-Jan-31 23:34N 49°26' E 000°19'0 0.1
2016-Jan-31 22:34N 49°26' E 000°19'0 0.1
2016-Jan-31 21:33N 49°26' E 000°19'0 0.1
2016-Jan-31 20:34N 49°26' E 000°19'0 0.0
2016-Jan-31 19:33N 49°26' E 000°19'0 0.1
2016-Jan-31 18:34N 49°26' E 000°19'0 0.0
2016-Jan-31 17:34N 49°26' E 000°19'0 0.1
2016-Jan-31 16:34N 49°26' E 000°19'0 0.0
2016-Jan-31 15:33N 49°26' E 000°19'0 0.0
2016-Jan-31 14:34N 49°26' E 000°19'0 0.0
2016-Jan-31 13:34N 49°26' E 000°19'0 0.0
2016-Jan-31 12:34N 49°26' E 000°19'0 0.0
2016-Jan-31 11:34N 49°26' E 000°19'0 0.0
2016-Jan-31 10:34N 49°26' E 000°19'0 0.0
2016-Jan-31 09:34N 49°26' E 000°19'0 0.0
2016-Jan-31 08:34N 49°26' E 000°19'0 0.0
2016-Jan-31 07:34N 49°26' E 000°19'0 0.0
2016-Jan-31 06:34N 49°26' E 000°19'0 0.0
2016-Jan-31 05:34N 49°26' E 000°19'0 0.0
2016-Jan-31 04:33N 49°26' E 000°19'0 0.0
2016-Jan-31 03:34N 49°26' E 000°19'0 0.0
2016-Jan-31 02:34N 49°26' E 000°19'0 0.0
2016-Jan-31 01:33N 49°26' E 000°19'0 0.0
2016-Jan-31 00:33N 49°26' E 000°19'0 0.0
2016-Jan-30 23:33N 49°26' E 000°19'0 0.1
2016-Jan-30 22:34N 49°26' E 000°19'0 0.0
2016-Jan-30 21:33N 49°26' E 000°19'0 0.0
2016-Jan-30 20:34N 49°26' E 000°19'0 0.0
2016-Jan-30 19:34N 49°26' E 000°19'0 0.0
2016-Jan-30 18:34N 49°26' E 000°19'0 0.0
2016-Jan-30 17:33N 49°26' E 000°19'0 0.0
2016-Jan-30 16:33N 49°26' E 000°19'0 0.0
2016-Jan-30 15:34N 49°26' E 000°19'7 7.1
2016-Jan-30 14:34N 49°26' E 000°08'4 4.0
2016-Jan-30 13:34N 49°29' E 000°05'2 1.5
2016-Jan-30 12:34N 49°29' E 000°07'0 0.0
2016-Jan-30 11:34N 49°29' E 000°07'0 0.0
2016-Jan-30 10:34N 49°29' E 000°07'0 0.0
2016-Jan-30 09:33N 49°29' E 000°07'0 0.0
2016-Jan-30 08:34N 49°29' E 000°07'0 0.0
2016-Jan-30 07:34N 49°29' E 000°07'0 0.0
2016-Jan-30 06:34N 49°29' E 000°07'0 0.0
2016-Jan-30 05:34N 49°29' E 000°07'0 0.0
2016-Jan-30 04:34N 49°29' E 000°07'0 0.0
2016-Jan-30 03:34N 49°29' E 000°07'0 0.0
2016-Jan-30 02:34N 49°29' E 000°07'0 0.0
2016-Jan-30 01:34N 49°29' E 000°07'0 0.0
2016-Jan-30 00:34N 49°29' E 000°07'0 0.0
2016-Jan-29 23:34N 49°29' E 000°07'0 0.0
2016-Jan-29 22:33N 49°29' E 000°07'0 0.5
2016-Jan-29 21:34N 49°29' E 000°07'6 5.6
2016-Jan-29 20:34N 49°28' W 000°01'1010.2
2016-Jan-29 19:34N 49°22' W 000°15'3 3.3
2016-Jan-29 18:34N 49°20' W 000°19'0 0.0
2016-Jan-29 17:34N 49°20' W 000°19'0 0.0
2016-Jan-29 16:33N 49°20' W 000°19'0 0.0
2016-Jan-29 15:32N 49°20' W 000°19'0 0.1
2016-Jan-29 14:34N 49°20' W 000°19'0 0.0
2016-Jan-29 13:33N 49°20' W 000°19'0 0.0
2016-Jan-29 12:34N 49°20' W 000°19'0 0.0
2016-Jan-29 11:33N 49°20' W 000°19'0 0.0
2016-Jan-29 10:34N 49°20' W 000°19'0 0.0
2016-Jan-29 08:22N 49°20' W 000°19'0 0.0
2016-Jan-29 07:34N 49°20' W 000°19'0 0.0
2016-Jan-29 06:33N 49°20' W 000°19'0 0.0
2016-Jan-29 05:34N 49°20' W 000°19'0 0.0
2016-Jan-29 04:34N 49°20' W 000°19'0 0.0
2016-Jan-29 03:34N 49°20' W 000°19'0 0.0
2016-Jan-29 02:34N 49°20' W 000°19'0 0.0
2016-Jan-29 01:34N 49°20' W 000°19'0 0.0
2016-Jan-29 00:33N 49°20' W 000°19'0 0.0
2016-Jan-28 23:33N 49°20' W 000°19'0 0.0
2016-Jan-28 22:34N 49°20' W 000°19'0 0.0
2016-Jan-28 21:33N 49°20' W 000°19'0 0.0
2016-Jan-28 20:34N 49°20' W 000°19'9 8.9
2016-Jan-28 19:34N 49°25' W 000°07'7 7.0
2016-Jan-28 18:34N 49°29' E 000°02'0 0.0
2016-Jan-28 17:34N 49°29' E 000°02'0 0.0
2016-Jan-28 16:34N 49°29' E 000°02'0 0.0
2016-Jan-28 15:34N 49°29' E 000°02'0 0.0
2016-Jan-28 14:34N 49°29' E 000°02'0 0.0
2016-Jan-28 13:34N 49°29' E 000°02'0 0.0
2016-Jan-28 12:34N 49°29' E 000°02'0 0.0
2016-Jan-28 11:34N 49°29' E 000°02'0 0.0
2016-Jan-28 10:34N 49°29' E 000°02'0 0.0
2016-Jan-28 09:34N 49°29' E 000°02'0 0.0
2016-Jan-28 08:34N 49°29' E 000°02'0 0.0
2016-Jan-28 07:34N 49°29' E 000°02'1 1.2
2016-Jan-28 06:34N 49°28' E 000°00'9 9.1
2016-Jan-28 05:34N 49°23' W 000°12'  

Dump ship's entire track history